createdAt,value
2023-04-18T00:00:45.623Z,40.06
2023-04-18T00:03:16.515Z,40.05
2023-04-18T00:05:47.857Z,40.05
2023-04-18T00:08:16.723Z,40.19
2023-04-18T00:10:44.857Z,40.00
2023-04-18T00:13:13.595Z,39.96
2023-04-18T00:15:44.788Z,39.88
2023-04-18T00:18:17.788Z,39.89
2023-04-18T00:20:46.854Z,39.80
2023-04-18T00:23:15.464Z,39.74
2023-04-18T00:25:43.662Z,39.66
2023-04-18T00:28:12.001Z,39.57
2023-04-18T00:30:40.660Z,39.66
2023-04-18T00:33:09.446Z,39.56
2023-04-18T00:35:39.111Z,39.54
2023-04-18T00:38:09.085Z,39.56
2023-04-18T00:40:38.324Z,40.18
2023-04-18T00:43:09.482Z,39.68
2023-04-18T00:45:41.050Z,39.50
2023-04-18T00:48:11.127Z,39.42
2023-04-18T00:50:41.124Z,39.36
2023-04-18T00:53:17.541Z,39.38
2023-04-18T00:55:51.327Z,39.36
2023-04-18T00:58:19.974Z,39.37
2023-04-18T01:00:49.986Z,39.34
2023-04-18T01:03:19.143Z,39.38
2023-04-18T01:05:48.891Z,39.41
2023-04-18T01:08:20.194Z,39.50
2023-04-18T01:10:49.972Z,39.92
2023-04-18T01:13:22.247Z,40.10
2023-04-18T01:15:55.014Z,39.64
2023-04-18T01:18:25.504Z,40.15
2023-04-18T01:20:57.536Z,40.38
2023-04-18T01:23:27.468Z,40.43
2023-04-18T01:25:57.362Z,40.37
2023-04-18T01:28:29.162Z,40.36
2023-04-18T01:30:59.083Z,40.35
2023-04-18T01:33:28.751Z,40.26
2023-04-18T01:35:57.556Z,40.27
2023-04-18T01:38:26.523Z,39.94
2023-04-18T01:40:55.714Z,39.81
2023-04-18T01:43:24.304Z,40.26
2023-04-18T01:45:53.367Z,40.15
2023-04-18T01:48:22.758Z,40.22
2023-04-18T01:50:52.418Z,40.09
2023-04-18T01:53:22.423Z,40.14
2023-04-18T01:55:51.608Z,40.20
2023-04-18T01:58:24.415Z,40.11
2023-04-18T02:00:54.639Z,40.22
2023-04-18T02:03:24.189Z,39.85
2023-04-18T02:05:54.131Z,39.79
2023-04-18T02:08:22.956Z,39.76
2023-04-18T02:10:51.967Z,39.77
2023-04-18T02:13:22.101Z,39.80
2023-04-18T02:15:51.625Z,39.77
2023-04-18T02:18:20.796Z,39.71
2023-04-18T02:20:49.449Z,39.77
2023-04-18T02:23:19.965Z,39.77
2023-04-18T02:25:50.235Z,39.69
2023-04-18T02:28:19.954Z,39.62
2023-04-18T02:30:48.616Z,39.52
2023-04-18T02:33:17.726Z,39.51
2023-04-18T02:35:46.972Z,39.51
2023-04-18T02:38:20.292Z,39.57
2023-04-18T02:40:53.817Z,39.61
2023-04-18T02:43:22.380Z,39.55
2023-04-18T02:45:50.947Z,39.53
2023-04-18T02:48:20.137Z,39.47
2023-04-18T02:50:49.406Z,39.43
2023-04-18T02:53:18.322Z,39.39
2023-04-18T02:55:57.418Z,39.44
2023-04-18T02:58:39.770Z,39.44
2023-04-18T03:01:37.874Z,39.48
2023-04-18T03:04:13.608Z,39.31
2023-04-18T03:06:50.694Z,39.17
2023-04-18T03:09:20.562Z,39.07
2023-04-18T03:11:56.479Z,39.06
2023-04-18T03:14:28.890Z,38.96
2023-04-18T03:16:58.210Z,38.95
2023-04-18T03:19:32.738Z,39.00
2023-04-18T03:22:08.336Z,38.99
2023-04-18T03:24:41.907Z,40.78
2023-04-18T03:27:14.753Z,39.33
2023-04-18T03:29:46.208Z,39.06
2023-04-18T03:32:17.926Z,38.91
2023-04-18T03:34:46.421Z,38.65
2023-04-18T03:37:16.137Z,38.40
2023-04-18T03:39:49.988Z,38.35
2023-04-18T03:42:20.020Z,38.18
2023-04-18T03:44:48.610Z,38.05
2023-04-18T03:47:17.780Z,38.04
2023-04-18T03:49:50.601Z,38.08
2023-04-18T03:52:21.615Z,38.03
2023-04-18T03:54:50.340Z,37.89
2023-04-18T03:57:22.642Z,38.25
2023-04-18T03:59:51.838Z,37.92
2023-04-18T04:02:21.676Z,37.84
2023-04-18T04:04:52.681Z,37.87
2023-04-18T04:07:22.554Z,37.88
2023-04-18T04:09:52.390Z,37.75
2023-04-18T04:12:21.640Z,37.64
2023-04-18T04:14:50.621Z,37.61
2023-04-18T04:17:19.637Z,37.55
2023-04-18T04:19:51.932Z,37.62
2023-04-18T04:22:22.495Z,37.66
2023-04-18T04:24:52.441Z,37.53
2023-04-18T04:27:29.762Z,37.54
2023-04-18T04:29:59.439Z,37.59
2023-04-18T04:32:30.012Z,37.62
2023-04-18T04:34:59.936Z,37.66
2023-04-18T04:37:30.673Z,37.71
2023-04-18T04:40:09.827Z,37.72
2023-04-18T04:43:00.978Z,37.70
2023-04-18T04:45:37.189Z,37.67
2023-04-18T04:48:06.590Z,37.78
2023-04-18T04:50:38.548Z,37.74
2023-04-18T04:53:08.636Z,37.69
2023-04-18T04:55:39.450Z,37.49
2023-04-18T04:58:10.290Z,38.23
2023-04-18T05:01:00.500Z,38.34
2023-04-18T05:03:29.913Z,38.36
2023-04-18T05:05:59.583Z,38.65
2023-04-18T05:08:29.057Z,39.86
2023-04-18T05:11:01.009Z,39.74
2023-04-18T05:13:30.517Z,39.46
2023-04-18T05:16:00.773Z,39.25
2023-04-18T05:18:30.097Z,38.83
2023-04-18T05:20:58.875Z,38.48
2023-04-18T05:23:28.496Z,38.32
2023-04-18T05:25:57.488Z,38.31
2023-04-18T05:28:29.379Z,37.94
2023-04-18T05:31:01.927Z,37.84
2023-04-18T05:33:32.762Z,38.02
2023-04-18T05:36:02.331Z,38.79
2023-04-18T05:38:31.865Z,37.98
2023-04-18T05:41:01.560Z,37.94
2023-04-18T05:43:31.045Z,37.90
2023-04-18T05:46:00.992Z,37.93
2023-04-18T05:48:31.054Z,37.92
2023-04-18T05:51:01.424Z,38.29
2023-04-18T05:53:31.323Z,38.40
2023-04-18T05:56:01.603Z,37.99
2023-04-18T05:58:32.001Z,38.15
2023-04-18T06:01:01.490Z,38.53
2023-04-18T06:03:30.894Z,38.61
2023-04-18T06:06:01.426Z,38.37
2023-04-18T06:08:30.619Z,38.01
2023-04-18T06:11:00.936Z,37.94
2023-04-18T06:13:30.764Z,37.96
2023-04-18T06:16:02.173Z,38.07
2023-04-18T06:18:32.251Z,37.87
2023-04-18T06:21:01.820Z,38.01
2023-04-18T06:23:31.056Z,37.88
2023-04-18T06:26:01.328Z,38.20
2023-04-18T06:28:30.951Z,38.00
2023-04-18T06:31:01.390Z,38.00
2023-04-18T06:33:32.289Z,38.06
2023-04-18T06:36:02.379Z,38.12
2023-04-18T06:38:31.383Z,38.02
2023-04-18T06:41:01.663Z,37.97
2023-04-18T06:43:31.604Z,38.47
2023-04-18T06:46:01.848Z,38.21
2023-04-18T06:48:32.480Z,38.06
2023-04-18T06:51:01.706Z,37.96
2023-04-18T06:53:30.816Z,37.94
2023-04-18T06:56:02.038Z,37.93
2023-04-18T06:58:31.608Z,37.89
2023-04-18T07:01:01.376Z,37.87
2023-04-18T07:03:32.425Z,37.93
2023-04-18T07:06:01.903Z,37.90
2023-04-18T07:08:31.226Z,37.91
2023-04-18T07:11:00.707Z,37.95
2023-04-18T07:13:31.689Z,37.90
2023-04-18T07:16:02.277Z,37.89
2023-04-18T07:18:37.970Z,37.90
2023-04-18T07:21:10.254Z,38.02
2023-04-18T07:23:38.659Z,37.91
2023-04-18T07:26:10.127Z,37.90
2023-04-18T07:28:39.358Z,37.92
2023-04-18T07:31:12.271Z,37.93
2023-04-18T07:33:41.215Z,37.92
2023-04-18T07:36:10.401Z,38.05
2023-04-18T07:38:40.660Z,37.93
2023-04-18T07:41:09.660Z,37.91
2023-04-18T07:43:39.815Z,37.83
2023-04-18T07:46:08.958Z,37.77
2023-04-18T07:48:37.895Z,37.70
2023-04-18T07:51:06.655Z,37.67
2023-04-18T07:53:36.245Z,37.61
2023-04-18T07:56:04.875Z,37.71
2023-04-18T07:58:37.762Z,37.63
2023-04-18T08:01:07.862Z,37.56
2023-04-18T08:03:37.915Z,37.56
2023-04-18T08:06:07.168Z,37.52
2023-04-18T08:08:36.957Z,37.50
2023-04-18T08:11:06.193Z,37.47
2023-04-18T08:13:34.868Z,37.48
2023-04-18T08:16:04.442Z,37.56
2023-04-18T08:18:32.942Z,37.44
2023-04-18T08:21:09.048Z,37.41
2023-04-18T08:23:37.793Z,37.41
2023-04-18T08:26:06.488Z,37.41
2023-04-18T08:28:36.489Z,37.40
2023-04-18T08:31:05.411Z,37.40
2023-04-18T08:33:34.139Z,37.33
2023-04-18T08:36:03.215Z,37.28
2023-04-18T08:38:32.350Z,37.21
2023-04-18T08:41:02.607Z,37.12
2023-04-18T08:43:32.228Z,37.00
2023-04-18T08:46:02.273Z,36.92
2023-04-18T08:48:32.458Z,36.90
2023-04-18T08:51:02.760Z,36.93
2023-04-18T08:53:34.843Z,37.54
2023-04-18T08:56:06.000Z,36.87
2023-04-18T08:58:35.450Z,36.80
2023-04-18T09:01:04.788Z,37.20
2023-04-18T09:03:53.148Z,37.11
2023-04-18T09:06:22.767Z,36.90
2023-04-18T09:09:04.896Z,37.00
2023-04-18T09:11:34.942Z,36.85
2023-04-18T09:14:04.436Z,36.80
2023-04-18T09:16:50.960Z,36.95
2023-04-18T09:19:20.569Z,36.74
2023-04-18T09:22:00.759Z,36.76
2023-04-18T09:24:32.929Z,36.89
2023-04-18T09:27:02.193Z,36.68
2023-04-18T09:29:56.651Z,36.86
2023-04-18T09:32:31.246Z,36.72
2023-04-18T09:35:06.144Z,36.69
2023-04-18T09:37:36.463Z,36.60
2023-04-18T09:40:18.537Z,36.74
2023-04-18T09:42:49.137Z,36.49
2023-04-18T09:45:18.758Z,36.35
2023-04-18T09:47:47.717Z,36.32
2023-04-18T09:50:21.739Z,36.33
2023-04-18T09:52:50.511Z,36.54
2023-04-18T09:55:20.745Z,36.22
2023-04-18T09:57:52.123Z,36.10
2023-04-18T10:00:25.810Z,36.12
2023-04-18T10:03:18.599Z,36.14
2023-04-18T10:05:49.800Z,36.26
2023-04-18T10:08:20.462Z,36.16
2023-04-18T10:10:49.433Z,36.09
2023-04-18T10:13:19.677Z,36.32
2023-04-18T10:15:53.640Z,36.24
2023-04-18T10:18:26.426Z,36.33
2023-04-18T10:21:07.281Z,36.35
2023-04-18T10:23:40.950Z,36.32
2023-04-18T10:26:11.900Z,36.41
2023-04-18T10:29:01.803Z,36.47
2023-04-18T10:31:40.919Z,36.35
2023-04-18T10:34:10.007Z,36.16
2023-04-18T10:37:05.988Z,36.39
2023-04-18T10:40:08.936Z,36.67
2023-04-18T10:42:50.434Z,37.01
2023-04-18T10:45:23.247Z,36.48
2023-04-18T10:48:12.566Z,36.77
2023-04-18T10:51:15.366Z,36.47
2023-04-18T10:53:53.558Z,36.97
2023-04-18T10:56:22.392Z,37.24
2023-04-18T10:58:52.631Z,37.31
2023-04-18T11:01:34.029Z,36.58
2023-04-18T11:04:11.500Z,36.31
2023-04-18T11:06:57.055Z,36.30
2023-04-18T11:09:26.835Z,36.33
2023-04-18T11:12:11.385Z,36.43
2023-04-18T11:14:44.828Z,36.51
2023-04-18T11:17:22.034Z,36.71
2023-04-18T11:19:52.727Z,36.57
2023-04-18T11:22:21.763Z,36.54
2023-04-18T11:24:50.608Z,36.56
2023-04-18T11:27:19.941Z,36.70
2023-04-18T11:29:54.529Z,36.82
2023-04-18T11:32:25.206Z,36.81
2023-04-18T11:34:56.610Z,36.87
2023-04-18T11:37:25.542Z,36.96
2023-04-18T11:39:54.900Z,37.10
2023-04-18T11:42:31.730Z,37.23
2023-04-18T11:45:01.907Z,37.39
2023-04-18T11:47:34.954Z,37.38
2023-04-18T11:50:07.536Z,37.50
2023-04-18T11:52:38.508Z,37.52
2023-04-18T11:55:21.799Z,37.68
2023-04-18T11:57:59.002Z,37.78
2023-04-18T12:00:40.457Z,37.98
2023-04-18T12:03:16.785Z,37.84
2023-04-18T12:05:46.786Z,37.83
2023-04-18T12:08:22.515Z,37.95
2023-04-18T12:10:52.248Z,39.30
2023-04-18T12:13:41.862Z,38.75
2023-04-18T12:16:10.458Z,38.37
2023-04-18T12:18:40.150Z,38.25
2023-04-18T12:21:09.645Z,38.36
2023-04-18T12:23:43.319Z,38.55
2023-04-18T12:26:23.402Z,38.72
2023-04-18T12:28:56.818Z,38.71
2023-04-18T12:31:25.728Z,38.74
2023-04-18T12:33:55.020Z,38.74
2023-04-18T12:36:24.734Z,38.79
2023-04-18T12:38:54.055Z,38.91
2023-04-18T12:41:22.799Z,38.98
2023-04-18T12:43:53.045Z,39.16
2023-04-18T12:46:22.129Z,39.18
2023-04-18T12:48:50.760Z,39.24
2023-04-18T12:51:21.116Z,39.37
2023-04-18T12:53:50.374Z,39.46
2023-04-18T12:56:19.269Z,39.46
2023-04-18T12:58:48.941Z,39.47
2023-04-18T13:01:17.693Z,39.51
2023-04-18T13:03:53.418Z,39.60
2023-04-18T13:06:30.281Z,39.59
2023-04-18T13:09:00.892Z,40.01
2023-04-18T13:11:31.726Z,39.50
2023-04-18T13:14:01.671Z,39.55
2023-04-18T13:16:32.407Z,39.66
2023-04-18T13:19:02.064Z,39.53
2023-04-18T13:21:32.291Z,39.62
2023-04-18T13:24:02.106Z,39.69
2023-04-18T13:26:36.718Z,40.10
2023-04-18T13:29:06.934Z,39.90
2023-04-18T13:31:36.730Z,40.32
2023-04-18T13:34:05.779Z,40.09
2023-04-18T13:36:36.048Z,39.94
2023-04-18T13:39:08.433Z,39.94
2023-04-18T13:41:37.505Z,39.82
2023-04-18T13:44:06.728Z,39.81
2023-04-18T13:46:36.693Z,40.43
2023-04-18T13:49:05.683Z,40.02
2023-04-18T13:51:34.829Z,40.00
2023-04-18T13:54:04.359Z,40.31
2023-04-18T13:56:33.719Z,40.23
2023-04-18T13:59:02.018Z,40.17
2023-04-18T14:01:30.995Z,40.23
2023-04-18T14:04:00.192Z,40.27
2023-04-18T14:06:29.044Z,40.31
2023-04-18T14:08:57.968Z,40.27
2023-04-18T14:11:30.405Z,40.28
2023-04-18T14:14:00.743Z,40.36
2023-04-18T14:16:36.441Z,40.25
2023-04-18T14:19:05.052Z,40.27
2023-04-18T14:21:33.546Z,40.30
2023-04-18T14:24:02.099Z,40.27
2023-04-18T14:26:31.436Z,40.25
2023-04-18T14:29:01.352Z,40.25
2023-04-18T14:31:30.153Z,40.28
2023-04-18T14:33:58.744Z,40.34
2023-04-18T14:36:27.722Z,40.40
2023-04-18T14:38:56.604Z,40.45
2023-04-18T14:41:26.172Z,40.56
2023-04-18T14:43:54.514Z,40.67
2023-04-18T14:46:23.018Z,40.73
2023-04-18T14:48:52.144Z,40.77
2023-04-18T14:51:20.775Z,40.79
2023-04-18T14:53:49.897Z,41.35
2023-04-18T14:56:21.626Z,41.68
2023-04-18T14:58:52.577Z,41.75
2023-04-18T15:01:22.098Z,41.77
2023-04-18T15:03:52.331Z,41.76
2023-04-18T15:06:21.375Z,41.84
2023-04-18T15:08:50.108Z,41.00
2023-04-18T15:11:18.724Z,40.88
2023-04-18T15:13:48.750Z,40.84
2023-04-18T15:16:17.682Z,40.80
2023-04-18T15:18:46.488Z,40.82
2023-04-18T15:21:15.021Z,40.83
2023-04-18T15:23:43.997Z,40.89
2023-04-18T15:26:12.522Z,40.99
2023-04-18T15:28:41.098Z,40.88
2023-04-18T15:31:10.376Z,40.89
2023-04-18T15:33:38.598Z,40.93
2023-04-18T15:36:07.667Z,41.06
2023-04-18T15:38:36.368Z,41.04
2023-04-18T15:41:04.665Z,41.02
2023-04-18T15:43:32.803Z,41.06
2023-04-18T15:46:01.650Z,41.24
2023-04-18T15:48:34.599Z,41.28
2023-04-18T15:51:04.660Z,41.35
2023-04-18T15:53:33.214Z,41.50
2023-04-18T15:56:02.452Z,41.35
2023-04-18T15:58:32.232Z,41.39
2023-04-18T16:01:00.769Z,41.36
2023-04-18T16:03:29.449Z,41.37
2023-04-18T16:05:58.640Z,42.97
2023-04-18T16:08:26.837Z,41.87
2023-04-18T16:10:55.741Z,41.78
2023-04-18T16:13:24.648Z,41.81
2023-04-18T16:15:53.025Z,42.11
2023-04-18T16:18:21.651Z,41.81
2023-04-18T16:20:50.602Z,41.81
2023-04-18T16:23:20.751Z,41.84
2023-04-18T16:25:49.961Z,41.83
2023-04-18T16:28:19.088Z,41.88
2023-04-18T16:30:47.979Z,41.97
2023-04-18T16:33:16.932Z,42.00
2023-04-18T16:35:45.672Z,42.17
2023-04-18T16:38:14.099Z,42.19
2023-04-18T16:40:42.714Z,42.26
2023-04-18T16:43:11.286Z,42.32
2023-04-18T16:45:40.150Z,42.42
2023-04-18T16:48:08.583Z,42.46
2023-04-18T16:50:38.014Z,42.53
2023-04-18T16:53:08.342Z,42.59
2023-04-18T16:55:36.999Z,42.68
2023-04-18T16:58:06.110Z,42.72
2023-04-18T17:00:36.423Z,42.77
2023-04-18T17:03:08.856Z,42.83
2023-04-18T17:05:40.035Z,42.72
2023-04-18T17:08:09.311Z,42.73
2023-04-18T17:10:38.207Z,42.77
2023-04-18T17:13:06.613Z,42.90
2023-04-18T17:15:36.595Z,43.62
2023-04-18T17:18:05.162Z,43.77
2023-04-18T17:20:33.946Z,43.49
2023-04-18T17:23:03.325Z,43.49
2023-04-18T17:25:32.627Z,43.57
2023-04-18T17:28:02.899Z,44.41
2023-04-18T17:30:32.344Z,43.77
2023-04-18T17:33:04.702Z,43.91
2023-04-18T17:35:33.476Z,43.88
2023-04-18T17:38:02.049Z,43.78
2023-04-18T17:40:31.520Z,43.82
2023-04-18T17:43:00.808Z,43.68
2023-04-18T17:45:29.545Z,43.64
2023-04-18T17:48:00.227Z,43.65
2023-04-18T17:50:40.736Z,43.76
2023-04-18T17:53:09.475Z,44.02
2023-04-18T17:58:30.980Z,43.79
2023-04-18T18:01:00.346Z,43.72
2023-04-18T18:03:29.985Z,43.83
2023-04-18T18:05:58.844Z,43.92
2023-04-18T18:08:27.200Z,44.01
2023-04-18T18:10:57.556Z,44.72
2023-04-18T18:13:26.983Z,44.10
2023-04-18T18:15:58.367Z,43.99
2023-04-18T18:18:32.783Z,43.99
2023-04-18T18:21:01.710Z,43.99
2023-04-18T18:23:31.244Z,44.06
2023-04-18T18:26:00.264Z,44.05
2023-04-18T18:28:30.006Z,44.04
2023-04-18T18:30:58.928Z,44.01
2023-04-18T18:33:28.979Z,43.97
2023-04-18T18:35:58.615Z,44.01
2023-04-18T18:38:26.875Z,43.97
2023-04-18T18:40:56.385Z,43.98
2023-04-18T18:43:26.767Z,43.94
2023-04-18T18:45:55.924Z,43.85
2023-04-18T18:48:25.627Z,43.85
2023-04-18T18:50:54.483Z,43.81
2023-04-18T18:53:22.875Z,43.86
2023-04-18T18:55:52.451Z,43.84
2023-04-18T18:58:21.879Z,43.88
2023-04-18T19:00:51.789Z,43.86
2023-04-18T19:03:22.034Z,43.93
2023-04-18T19:05:50.976Z,44.01
2023-04-18T19:08:19.514Z,43.94
2023-04-18T19:10:48.320Z,43.91
2023-04-18T19:13:16.638Z,43.94
2023-04-18T19:15:44.945Z,43.96
2023-04-18T19:18:13.877Z,43.97
2023-04-18T19:20:42.446Z,43.97
2023-04-18T19:23:10.603Z,43.96
2023-04-18T19:25:38.945Z,43.97
2023-04-18T19:28:08.201Z,44.01
2023-04-18T19:30:36.608Z,44.10
2023-04-18T19:33:05.181Z,44.29
2023-04-18T19:35:35.287Z,44.25
2023-04-18T19:38:05.336Z,44.20
2023-04-18T19:40:33.922Z,44.16
2023-04-18T19:43:02.535Z,44.14
2023-04-18T19:45:32.441Z,44.16
2023-04-18T19:48:01.201Z,44.19
2023-04-18T19:50:30.691Z,44.17
2023-04-18T19:52:59.125Z,44.24
2023-04-18T19:55:27.891Z,44.14
2023-04-18T19:58:00.578Z,44.04
2023-04-18T20:00:30.522Z,44.05
2023-04-18T20:02:59.817Z,44.08
2023-04-18T20:05:28.951Z,43.97
2023-04-18T20:07:57.725Z,43.90
2023-04-18T20:10:26.778Z,43.90
2023-04-18T20:12:54.918Z,43.85
2023-04-18T20:15:24.266Z,44.00
2023-04-18T20:17:52.442Z,43.98
2023-04-18T20:20:21.400Z,44.01
2023-04-18T20:22:50.349Z,44.07
2023-04-18T20:25:18.653Z,44.79
2023-04-18T20:27:46.864Z,44.95
2023-04-18T20:30:16.812Z,44.98
2023-04-18T20:32:45.859Z,45.09
2023-04-18T20:35:14.347Z,44.46
2023-04-18T20:37:43.540Z,44.75
2023-04-18T20:44:22.547Z,45.10
2023-04-18T20:46:53.952Z,45.10
2023-04-18T20:49:22.599Z,44.84
2023-04-18T20:52:26.808Z,44.66
2023-04-18T20:59:06.163Z,44.59
2023-04-18T21:01:36.172Z,44.26
2023-04-18T21:04:07.198Z,44.08
2023-04-18T21:06:37.476Z,44.10
2023-04-18T21:09:07.026Z,43.92
2023-04-18T21:11:35.983Z,43.85
2023-04-18T21:14:07.063Z,43.78
2023-04-18T21:16:38.046Z,43.78
2023-04-18T21:19:09.040Z,43.86
2023-04-18T21:21:37.841Z,43.75
2023-04-18T21:24:07.178Z,43.67
2023-04-18T21:29:55.240Z,43.68
2023-04-18T21:33:07.219Z,44.01
2023-04-18T21:35:36.553Z,43.74
2023-04-18T21:38:11.047Z,43.64
2023-04-18T21:40:40.300Z,43.53
2023-04-18T21:43:08.868Z,43.47
2023-04-18T21:45:37.332Z,43.40
2023-04-18T21:48:30.024Z,43.79
2023-04-18T21:51:30.968Z,43.62
2023-04-18T21:54:02.178Z,44.28
2023-04-18T21:56:32.431Z,44.62
2023-04-18T21:59:19.029Z,44.92
2023-04-18T22:01:47.650Z,44.65
2023-04-18T22:04:16.831Z,44.53
2023-04-18T22:06:46.570Z,44.49
2023-04-18T22:09:26.196Z,44.37
2023-04-18T22:12:16.969Z,44.65
2023-04-18T22:14:48.802Z,44.65
2023-04-18T22:17:17.262Z,44.68
2023-04-18T22:19:47.678Z,43.46
2023-04-18T22:22:20.630Z,43.24
2023-04-18T22:24:49.098Z,43.10
2023-04-18T22:27:18.559Z,43.02
2023-04-18T22:29:47.016Z,43.02
2023-04-18T22:32:15.560Z,43.00
2023-04-18T22:34:45.664Z,42.99
2023-04-18T22:37:14.446Z,42.95
2023-04-18T22:39:42.882Z,42.89
2023-04-18T22:42:15.155Z,43.12
2023-04-18T22:44:44.767Z,42.96
2023-04-18T22:47:29.169Z,43.15
2023-04-18T22:49:58.530Z,42.97
2023-04-18T22:52:27.266Z,42.80
2023-04-18T22:54:59.155Z,42.73
2023-04-18T22:57:29.411Z,42.68
2023-04-18T22:59:58.397Z,42.61
2023-04-18T23:02:27.623Z,43.26
2023-04-18T23:05:00.236Z,42.89
2023-04-18T23:11:02.203Z,42.89
2023-04-18T23:13:31.889Z,43.58
2023-04-18T23:16:01.295Z,43.38
2023-04-18T23:18:31.076Z,42.83
2023-04-18T23:21:01.782Z,42.61
2023-04-18T23:23:31.384Z,42.50
2023-04-18T23:26:01.120Z,42.49
2023-04-18T23:28:30.436Z,42.50
2023-04-18T23:30:59.032Z,42.48
2023-04-18T23:33:27.704Z,42.37
2023-04-18T23:35:57.029Z,42.26
2023-04-18T23:38:28.873Z,42.17
2023-04-18T23:40:57.897Z,41.96
2023-04-18T23:43:26.852Z,41.86
2023-04-18T23:45:56.597Z,41.84
2023-04-18T23:48:24.948Z,41.81
2023-04-18T23:50:53.824Z,41.73
2023-04-18T23:53:23.394Z,41.70
2023-04-18T23:55:55.412Z,41.77
2023-04-18T23:58:24.174Z,41.62
